UAF823 ENBR-ENZV
Flight info
| Callsign | UAF823 |
|---|---|
| Flight time | 0h 22m |
| Altitude | 15000 |
| Route | BEGOD |
| Aircraft | C295/M-SBDE3FGHJ4J7M3RTUXY/LB1D1 |
Departure
| Time | 2026-04-08 15:23 |
|---|---|
| Airport | Bergen Airport, Flesland (ENBR) |
Arrival
| Time | 2026-04-08 15:45 |
|---|---|
| Airport | Stavanger Airport, Sola (ENZV) |
| Time | Latitude | Longitude | Altitude | Speed | Heading |
|---|---|---|---|---|---|
| 2026-04-08 15:09 | 60.28230 | 5.22649 | 152 ft | 0 kts | 210° |
| 2026-04-08 15:19 | 60.28220 | 5.22634 | 152 ft | 4 kts | 226° |
| 2026-04-08 15:19 | 60.28216 | 5.22543 | 151 ft | 7 kts | 294° |
| 2026-04-08 15:19 | 60.28267 | 5.22498 | 153 ft | 10 kts | 351° |
| 2026-04-08 15:19 | 60.28346 | 5.22472 | 157 ft | 14 kts | 351° |
| 2026-04-08 15:20 | 60.28441 | 5.22440 | 161 ft | 14 kts | 351° |
| 2026-04-08 15:20 | 60.28557 | 5.22401 | 161 ft | 20 kts | 350° |
| 2026-04-08 15:20 | 60.28695 | 5.22356 | 162 ft | 22 kts | 351° |
| 2026-04-08 15:20 | 60.28839 | 5.22307 | 160 ft | 20 kts | 350° |
| 2026-04-08 15:21 | 60.28968 | 5.22263 | 160 ft | 18 kts | 350° |
| 2026-04-08 15:21 | 60.29090 | 5.22222 | 160 ft | 18 kts | 351° |
| 2026-04-08 15:21 | 60.29212 | 5.22182 | 161 ft | 17 kts | 348° |
| 2026-04-08 15:21 | 60.29327 | 5.22144 | 159 ft | 16 kts | 350° |
| 2026-04-08 15:22 | 60.29390 | 5.22027 | 154 ft | 15 kts | 264° |
| 2026-04-08 15:22 | 60.29377 | 5.21857 | 153 ft | 5 kts | 259° |
| 2026-04-08 15:22 | 60.29354 | 5.21808 | 152 ft | 5 kts | 173° |
| 2026-04-08 15:22 | 60.29308 | 5.21828 | 153 ft | 25 kts | 170° |
| 2026-04-08 15:23 | 60.28785 | 5.22001 | 169 ft | 121 kts | 170° |
| 2026-04-08 15:23 | 60.27816 | 5.22344 | 615 ft | 155 kts | 168° |
| 2026-04-08 15:23 | 60.26735 | 5.22716 | 1610 ft | 156 kts | 170° |
| 2026-04-08 15:23 | 60.25671 | 5.23057 | 2742 ft | 157 kts | 169° |
| 2026-04-08 15:24 | 60.24557 | 5.23416 | 3499 ft | 173 kts | 171° |
| 2026-04-08 15:24 | 60.23329 | 5.23813 | 4206 ft | 185 kts | 173° |
| 2026-04-08 15:24 | 60.22027 | 5.24237 | 4920 ft | 195 kts | 173° |
| 2026-04-08 15:24 | 60.20662 | 5.24685 | 5642 ft | 203 kts | 174° |
| 2026-04-08 15:25 | 60.19244 | 5.25154 | 6383 ft | 210 kts | 175° |
| 2026-04-08 15:25 | 60.17784 | 5.25640 | 7142 ft | 216 kts | 175° |
| 2026-04-08 15:25 | 60.16280 | 5.26142 | 7854 ft | 222 kts | 176° |
| 2026-04-08 15:25 | 60.14732 | 5.26658 | 8559 ft | 229 kts | 176° |
| 2026-04-08 15:26 | 60.13139 | 5.27190 | 9275 ft | 235 kts | 176° |
| 2026-04-08 15:26 | 60.11531 | 5.27727 | 9979 ft | 241 kts | 176° |
| 2026-04-08 15:26 | 60.09854 | 5.28086 | 10660 ft | 242 kts | 186° |
| 2026-04-08 15:26 | 60.08213 | 5.27711 | 11351 ft | 241 kts | 196° |
| 2026-04-08 15:27 | 60.06553 | 5.26954 | 12068 ft | 243 kts | 198° |
| 2026-04-08 15:27 | 60.04889 | 5.26149 | 12716 ft | 248 kts | 198° |
| 2026-04-08 15:27 | 60.03204 | 5.25324 | 13369 ft | 252 kts | 198° |
| 2026-04-08 15:27 | 60.01486 | 5.24479 | 14017 ft | 256 kts | 198° |
| 2026-04-08 15:28 | 59.99751 | 5.23620 | 14604 ft | 258 kts | 198° |
| 2026-04-08 15:28 | 59.98001 | 5.22751 | 15176 ft | 260 kts | 198° |
| 2026-04-08 15:28 | 59.96219 | 5.21860 | 15356 ft | 276 kts | 198° |
| 2026-04-08 15:28 | 59.94302 | 5.20903 | 15395 ft | 291 kts | 198° |
| 2026-04-08 15:29 | 59.92291 | 5.19905 | 15393 ft | 304 kts | 198° |
| 2026-04-08 15:29 | 59.90220 | 5.18880 | 15382 ft | 312 kts | 198° |
| 2026-04-08 15:29 | 59.88092 | 5.17828 | 15381 ft | 318 kts | 198° |
| 2026-04-08 15:29 | 59.85929 | 5.16759 | 15384 ft | 322 kts | 198° |
| 2026-04-08 15:30 | 59.83745 | 5.15680 | 15373 ft | 325 kts | 198° |
| 2026-04-08 15:30 | 59.81544 | 5.14607 | 15378 ft | 327 kts | 196° |
| 2026-04-08 15:30 | 59.79278 | 5.14016 | 15377 ft | 332 kts | 186° |
| 2026-04-08 15:30 | 59.76995 | 5.14185 | 15374 ft | 335 kts | 179° |
| 2026-04-08 15:31 | 59.74678 | 5.14884 | 15381 ft | 338 kts | 172° |
| 2026-04-08 15:31 | 59.72412 | 5.16107 | 15379 ft | 341 kts | 168° |
| 2026-04-08 15:31 | 59.70149 | 5.17521 | 15382 ft | 342 kts | 167° |
| 2026-04-08 15:31 | 59.67891 | 5.19007 | 15377 ft | 342 kts | 166° |
| 2026-04-08 15:32 | 59.65635 | 5.20532 | 15380 ft | 342 kts | 166° |
| 2026-04-08 15:32 | 59.63389 | 5.22066 | 14845 ft | 348 kts | 166° |
| 2026-04-08 15:32 | 59.61055 | 5.23663 | 13921 ft | 362 kts | 165° |
| 2026-04-08 15:32 | 59.58702 | 5.25288 | 13212 ft | 364 kts | 165° |
| 2026-04-08 15:33 | 59.56342 | 5.26918 | 12511 ft | 357 kts | 165° |
| 2026-04-08 15:33 | 59.54017 | 5.28518 | 11747 ft | 353 kts | 165° |
| 2026-04-08 15:33 | 59.51727 | 5.30091 | 11008 ft | 350 kts | 165° |
| 2026-04-08 15:33 | 59.49442 | 5.31658 | 10303 ft | 346 kts | 165° |
| 2026-04-08 15:34 | 59.47194 | 5.33197 | 9611 ft | 339 kts | 165° |
| 2026-04-08 15:34 | 59.44985 | 5.34707 | 8949 ft | 332 kts | 165° |
| 2026-04-08 15:34 | 59.42821 | 5.36184 | 8287 ft | 326 kts | 165° |
| 2026-04-08 15:34 | 59.40727 | 5.37610 | 7704 ft | 320 kts | 165° |
| 2026-04-08 15:35 | 59.38651 | 5.39023 | 7137 ft | 313 kts | 164° |
| 2026-04-08 15:35 | 59.36612 | 5.40409 | 6563 ft | 308 kts | 164° |
| 2026-04-08 15:35 | 59.34611 | 5.41766 | 5980 ft | 303 kts | 163° |
| 2026-04-08 15:35 | 59.32654 | 5.43196 | 5419 ft | 298 kts | 161° |
| 2026-04-08 15:36 | 59.30739 | 5.44645 | 4843 ft | 293 kts | 161° |
| 2026-04-08 15:36 | 59.28841 | 5.46026 | 4263 ft | 289 kts | 161° |
| 2026-04-08 15:36 | 59.26959 | 5.47337 | 3714 ft | 285 kts | 161° |
| 2026-04-08 15:36 | 59.25094 | 5.48587 | 3137 ft | 283 kts | 161° |
| 2026-04-08 15:37 | 59.23252 | 5.49786 | 2505 ft | 283 kts | 161° |
| 2026-04-08 15:37 | 59.21384 | 5.50974 | 2057 ft | 279 kts | 161° |
| 2026-04-08 15:37 | 59.19666 | 5.52057 | 1939 ft | 238 kts | 161° |
| 2026-04-08 15:37 | 59.18160 | 5.52994 | 1942 ft | 224 kts | 161° |
| 2026-04-08 15:38 | 59.16676 | 5.53914 | 1950 ft | 224 kts | 161° |
| 2026-04-08 15:38 | 59.15189 | 5.54833 | 1965 ft | 225 kts | 161° |
| 2026-04-08 15:38 | 59.13696 | 5.55752 | 1968 ft | 223 kts | 161° |
| 2026-04-08 15:38 | 59.12220 | 5.56667 | 1974 ft | 223 kts | 161° |
| 2026-04-08 15:39 | 59.10743 | 5.57658 | 1972 ft | 224 kts | 159° |
| 2026-04-08 15:39 | 59.09318 | 5.58793 | 1978 ft | 224 kts | 157° |
| 2026-04-08 15:39 | 59.07982 | 5.59880 | 1963 ft | 193 kts | 157° |
| 2026-04-08 15:39 | 59.06826 | 5.60812 | 1967 ft | 173 kts | 157° |
| 2026-04-08 15:40 | 59.05715 | 5.61704 | 1978 ft | 173 kts | 157° |
| 2026-04-08 15:40 | 59.04686 | 5.62586 | 1985 ft | 155 kts | 152° |
| 2026-04-08 15:40 | 59.03695 | 5.63332 | 1993 ft | 153 kts | 169° |
| 2026-04-08 15:40 | 59.02659 | 5.63346 | 1981 ft | 139 kts | 175° |
| 2026-04-08 15:41 | 59.01715 | 5.63358 | 1990 ft | 134 kts | 175° |
| 2026-04-08 15:41 | 59.00792 | 5.63374 | 2003 ft | 135 kts | 174° |
| 2026-04-08 15:41 | 58.99881 | 5.63395 | 1990 ft | 116 kts | 175° |
| 2026-04-08 15:41 | 58.99130 | 5.63417 | 2070 ft | 105 kts | 174° |
| 2026-04-08 15:42 | 58.98408 | 5.63443 | 1981 ft | 104 kts | 174° |
| 2026-04-08 15:42 | 58.97686 | 5.63470 | 1851 ft | 104 kts | 174° |
| 2026-04-08 15:42 | 58.96965 | 5.63497 | 1689 ft | 104 kts | 175° |
| 2026-04-08 15:42 | 58.96236 | 5.63520 | 1540 ft | 105 kts | 174° |
| 2026-04-08 15:43 | 58.95502 | 5.63547 | 1398 ft | 105 kts | 174° |
| 2026-04-08 15:43 | 58.94766 | 5.63572 | 1245 ft | 106 kts | 175° |
| 2026-04-08 15:43 | 58.94050 | 5.63594 | 1062 ft | 101 kts | 176° |
| 2026-04-08 15:43 | 58.93338 | 5.63616 | 869 ft | 99 kts | 175° |
| 2026-04-08 15:44 | 58.92654 | 5.63643 | 729 ft | 101 kts | 176° |
| 2026-04-08 15:44 | 58.91931 | 5.63664 | 588 ft | 101 kts | 177° |
| 2026-04-08 15:44 | 58.91225 | 5.63671 | 445 ft | 108 kts | 176° |
| 2026-04-08 15:44 | 58.90473 | 5.63703 | 277 ft | 107 kts | 178° |
| 2026-04-08 15:45 | 58.89746 | 5.63720 | 114 ft | 102 kts | 177° |
| 2026-04-08 15:45 | 58.89279 | 5.63735 | 41 ft | 101 kts | 177° |
| 2026-04-08 15:45 | 58.88651 | 5.63756 | 27 ft | 79 kts | 179° |
| 2026-04-08 15:45 | 58.88220 | 5.63766 | 29 ft | 29 kts | 178° |
| 2026-04-08 15:46 | 58.88032 | 5.63771 | 30 ft | 24 kts | 179° |
| 2026-04-08 15:46 | 58.87866 | 5.63775 | 31 ft | 26 kts | 179° |
| 2026-04-08 15:46 | 58.87729 | 5.63779 | 31 ft | 14 kts | 181° |
| 2026-04-08 15:46 | 58.87688 | 5.63755 | 31 ft | 7 kts | 231° |
| 2026-04-08 15:47 | 58.87707 | 5.63632 | 31 ft | 11 kts | 286° |
| 2026-04-08 15:47 | 58.87733 | 5.63431 | 30 ft | 16 kts | 289° |
| 2026-04-08 15:47 | 58.87717 | 5.63306 | 29 ft | 6 kts | 214° |
| 2026-04-08 15:47 | 58.87679 | 5.63293 | 29 ft | 6 kts | 179° |
| 2026-04-08 15:48 | 58.87607 | 5.63294 | 29 ft | 11 kts | 180° |
| 2026-04-08 15:48 | 58.87520 | 5.63297 | 29 ft | 12 kts | 179° |
| 2026-04-08 15:48 | 58.87477 | 5.63288 | 28 ft | 6 kts | 214° |
| 2026-04-08 15:48 | 58.87465 | 5.63155 | 28 ft | 12 kts | 272° |
| 2026-04-08 15:49 | 58.87458 | 5.63052 | 28 ft | 3 kts | 205° |
| 2026-04-08 15:49 | 58.87449 | 5.63070 | 27 ft | 1 kts | 89° |
| 2026-04-08 15:49 | 58.87450 | 5.63075 | 27 ft | 0 kts | 63° |